Historique des mesures à Cassis (13260), France
Quotidien Résumé Juin 11, 2021 Unités:  US    Métrique   Métrique/US
Quotidien Hebdomadaire Mensuel Annuel
  Maximum: Minimum: Moyenne:
Température: 69.1 °F 55.4 °F 61.2 °F
Point de rosée: 57.7 °F 44.8 °F 50.2 °F
Humidité: 82% 55% 68%
Vitesse du vent: 12.6mph 0mph 3.4mph
Rafales: 14.3mph - -
Vent- - WNW
Pression: 30.1 in 30 in -
Précipitations: 0 in    
Historical Graphs
 
 
Mesures pour : Juin 11, 2021
Heure Temperature Point de rosée Pression Vent Vitesse du vent Rafales Humidité Pluie (par heure)
00:11 57 °F 46.9 °F 30 in Calm   4.5 mph 69% 0 in
01:11 56.8 °F 47.1 °F 30 in NW 1.6 mph 5.3 mph 70% 0 in
02:11 57 °F 47.3 °F 30 in NNW 8.3 mph 11.9 mph 70% 0 in
03:11 57 °F 46.9 °F 30 in NNW 2.2 mph 4.7 mph 69% 0 in
04:11 55.9 °F 47.3 °F 30 in WNW 2.5 mph 5.3 mph 73% 0 in
05:11 55.6 °F 48 °F 30 in Calm   3.6 mph 76% 0 in
06:11 55.4 °F 48.9 °F 30 in NW 2.5 mph 5.3 mph 79% 0 in
07:11 55.6 °F 50.2 °F 30 in NW 5.2 mph 9.2 mph 82% 0 in
08:11 56.1 °F 49.3 °F 30 in NW 4.7 mph 11.4 mph 78% 0 in
09:11 59.4 °F 50.4 °F 30 in WNW 2.9 mph 3.8 mph 72% 0 in
10:11 60.8 °F 51.8 °F 30 in Calm     72% 0 in
11:11 63 °F 53.1 °F 30.1 in NW 1.1 mph 2.7 mph 70% 0 in
12:11 65.5 °F 55 °F 30.1 in South 2.2 mph 4 mph 69% 0 in
13:11 67.1 °F 56.1 °F 30 in Calm   4.7 mph 68% 0 in
14:11 68.2 °F 57.7 °F 30 in SSE 1.4 mph 3.6 mph 69% 0 in
15:11 68.5 °F 57.2 °F 30 in Calm   7 mph 67% 0 in
16:11 69.1 °F 56.8 °F 30 in Calm   7 mph 65% 0 in
17:11 68.7 °F 53.4 °F 30 in WSW 4 mph 12.7 mph 58% 0 in
18:11 67.6 °F 50.9 °F 30 in West 12.6 mph 12.6 mph 55% 0 in
19:11 64 °F 47.8 °F 30 in WNW 10.3 mph 13 mph 56% 0 in
20:11 61.9 °F 46.4 °F 30 in WNW 6.7 mph 14.3 mph 57% 0 in
21:11 59.7 °F 45.9 °F 30 in West 4.5 mph 6.3 mph 60% 0 in
22:11 58.8 °F 45.9 °F 30 in NW 2.2 mph 4.9 mph 62% 0 in
23:11 58.6 °F 44.8 °F 30 in NW 6 mph 6.7 mph 60% 0 in
Observations météo à CASSIS
WU-History script by Weather Underground - 2 mb